Time;durP1;ratioP1;P1;durP2;ratioP2;P2;SDS_P1;SDS_P2;PMS_P1;PMS_P2;Temp;Humidity;BMP_temperature;BMP_pressure;BME280_temperature;BME280_humidity;BME280_pressure;Samples;Min_cycle;Max_cycle;Signal;HPM_P1;HPM_P2
2023/01/03 00:02:06;;;;;;;6.22;2.40;;;;;;;9.56;71.29;97232.81;5015816;28;20449;-80
2023/01/03 00:04:33;;;;;;;7.45;2.70;;;;;;;9.53;71.62;97227.94;5015765;28;20042;-80
2023/01/03 00:06:59;;;;;;;6.55;2.20;;;;;;;9.40;72.50;97234.88;5018195;28;20038;-80
2023/01/03 00:09:26;;;;;;;7.47;2.78;;;;;;;9.27;73.43;97228.22;5019025;28;20405;-80
2023/01/03 00:14:42;;;;;;;8.35;3.00;;;;;;;9.14;75.29;97235.16;5019532;28;20060;-80
2023/01/03 00:17:10;;;;;;;9.82;2.38;;;;;;;9.07;76.49;97242.81;5019960;28;20050;-79
2023/01/03 00:19:40;;;;;;;5.40;1.95;;;;;;;8.90;77.65;97242.44;5021714;28;20041;-80
2023/01/03 00:22:07;;;;;;;6.13;2.17;;;;;;;8.72;79.30;97248.56;5021137;28;20049;-79
2023/01/03 00:24:36;;;;;;;5.68;2.35;;;;;;;8.63;80.53;97241.03;5015004;28;20047;-80
2023/01/03 00:27:03;;;;;;;5.22;1.80;;;;;;;8.48;81.85;97235.72;5003403;28;20453;-79
2023/01/03 00:29:30;;;;;;;7.00;2.13;;;;;;;8.43;83.13;97243.91;4999955;28;20061;-79
2023/01/03 00:31:58;;;;;;;4.40;1.90;;;;;;;8.30;84.55;97239.88;4997681;28;20049;-80
2023/01/03 00:34:25;;;;;;;5.10;2.03;;;;;;;8.25;85.89;97247.25;4998686;28;20401;-81
2023/01/03 00:36:51;;;;;;;5.13;1.90;;;;;;;8.21;85.94;97251.63;4998562;28;20053;-80
2023/01/03 00:39:21;;;;;;;6.05;1.58;;;;;;;8.13;86.92;97258.44;4995090;28;20046;-80
2023/01/03 00:41:48;;;;;;;5.47;1.63;;;;;;;8.06;87.14;97250.59;4995690;28;20051;-80
2023/01/03 00:44:15;;;;;;;2.97;1.70;;;;;;;8.02;87.97;97254.97;4995270;28;20478;-80
2023/01/03 00:46:41;;;;;;;9.30;2.60;;;;;;;8.02;87.10;97249.53;4998191;28;20053;-79
2023/01/03 00:49:10;;;;;;;4.32;1.60;;;;;;;8.01;87.66;97263.38;4995294;28;20053;-80
2023/01/03 00:51:40;;;;;;;3.65;1.65;;;;;;;8.02;87.18;97259.56;4994919;28;20042;-78
2023/01/03 00:54:08;;;;;;;6.70;1.73;;;;;;;8.08;87.11;97258.44;4993936;28;20042;-81
2023/01/03 00:56:36;;;;;;;2.95;1.45;;;;;;;8.10;86.71;97262.53;4994433;28;20054;-80
2023/01/03 00:59:03;;;;;;;3.78;1.58;;;;;;;8.12;86.25;97264.94;4994709;28;20046;-80
2023/01/03 01:01:32;;;;;;;4.65;1.25;;;;;;;8.21;86.14;97262.47;4995204;28;20043;-79
2023/01/03 01:04:02;;;;;;;4.57;1.73;;;;;;;8.18;86.36;97258.41;4997448;28;20046;-80
2023/01/03 01:06:33;;;;;;;3.40;1.42;;;;;;;8.12;86.10;97264.94;5015873;28;20481;-79
2023/01/03 01:09:02;;;;;;;3.80;1.42;;;;;;;8.12;86.18;97270.38;5003697;28;20509;-79
2023/01/03 01:11:29;;;;;;;4.28;1.77;;;;;;;8.14;86.36;97273.59;5001864;28;20043;-80
2023/01/03 01:13:56;;;;;;;2.50;1.10;;;;;;;8.14;86.32;97279.03;5004085;28;20050;-80
2023/01/03 01:16:26;;;;;;;3.53;1.42;;;;;;;8.15;85.39;97286.09;5016811;28;20493;-80
2023/01/03 01:18:53;;;;;;;2.40;0.95;;;;;;;8.14;84.94;97289.06;5008921;28;20041;-78
2023/01/03 01:21:22;;;;;;;3.17;1.25;;;;;;;8.11;84.72;97280.41;5023075;28;20050;-80
2023/01/03 01:23:50;;;;;;;1.40;0.82;;;;;;;8.13;83.55;97290.19;5016747;28;20117;-80
2023/01/03 01:26:20;;;;;;;1.38;0.90;;;;;;;8.18;82.75;97284.72;4997919;28;20712;-80
2023/01/03 01:28:48;;;;;;;3.00;1.00;;;;;;;8.26;82.60;97289.56;4997842;28;20050;-79
2023/01/03 01:31:18;;;;;;;2.30;0.75;;;;;;;8.10;83.12;97289.66;4997667;28;20042;-80
2023/01/03 01:33:48;;;;;;;1.27;0.80;;;;;;;8.08;83.24;97291.81;4998104;28;20042;-80
2023/01/03 01:36:17;;;;;;;0.95;0.75;;;;;;;8.06;83.42;97293.19;5001827;28;20049;-80
2023/01/03 01:38:45;;;;;;;1.92;0.80;;;;;;;8.16;83.11;97292.34;4999321;28;20053;-79
2023/01/03 01:41:15;;;;;;;1.70;0.70;;;;;;;8.18;82.75;97296.38;5007801;28;20064;-79
2023/01/03 01:46:40;;;;;;;2.25;0.90;;;;;;;8.35;81.55;97290.59;5031401;28;20056;-80
2023/01/03 01:49:12;;;;;;;1.98;0.77;;;;;;;8.29;82.14;97289.81;5031376;28;20030;-81
2023/01/03 01:51:39;;;;;;;2.03;0.87;;;;;;;8.24;81.99;97289.03;5031114;28;20046;-80
2023/01/03 01:54:07;;;;;;;1.20;0.70;;;;;;;8.30;81.63;97287.91;5030365;28;20048;-79
2023/01/03 01:56:40;;;;;;;3.35;0.80;;;;;;;8.23;81.99;97287.41;5030394;28;20046;-79
2023/01/03 01:59:08;;;;;;;5.53;0.80;;;;;;;8.19;81.52;97299.91;5031098;28;20050;-80
2023/01/03 02:01:35;;;;;;;1.75;0.63;;;;;;;8.09;81.51;97298.88;5008914;28;20387;-80
2023/01/03 02:04:06;;;;;;;1.02;0.57;;;;;;;8.02;81.10;97309.22;4997283;28;20043;-78
2023/01/03 02:06:34;;;;;;;1.23;0.60;;;;;;;7.99;81.50;97314.41;4997328;28;20042;-80
2023/01/03 02:09:01;;;;;;;1.20;0.60;;;;;;;7.94;81.97;97311.72;4997519;28;20134;-79
2023/01/03 02:11:37;;;;;;;1.58;0.60;;;;;;;7.90;81.49;97311.44;5009300;28;20041;-80
2023/01/03 02:14:17;;;;;;;0.88;0.40;;;;;;;7.87;82.59;97311.97;5022833;28;20414;-79
2023/01/03 02:17:00;;;;;;;0.75;0.45;;;;;;;7.76;83.33;97324.75;5018564;28;20052;-79
2023/01/03 02:20:02;;;;;;;0.50;0.40;;;;;;;8.02;82.22;97325.47;5014935;28;20048;-79
2023/01/03 02:23:10;;;;;;;0.73;0.35;;;;;;;8.14;80.98;97324.34;5009679;28;20037;-79
2023/01/03 02:26:08;;;;;;;1.58;0.50;;;;;;;8.06;80.87;97323.84;5001897;28;20046;-79
2023/01/03 02:29:02;;;;;;;3.35;1.05;;;;;;;8.04;80.89;97328.75;5013613;28;20049;-79
2023/01/03 02:31:38;;;;;;;1.48;0.40;;;;;;;8.15;81.10;97323.28;5015571;28;20053;-79
2023/01/03 02:34:16;;;;;;;1.02;0.50;;;;;;;7.95;82.61;97324.97;5025044;28;20053;-78
2023/01/03 02:36:53;;;;;;;1.25;0.70;;;;;;;8.09;81.97;97323.31;5001458;28;20045;-79
2023/01/03 02:39:26;;;;;;;0.80;0.50;;;;;;;8.16;81.37;97324.91;4994017;28;20046;-80
2023/01/03 02:42:56;;;;;;;0.77;0.50;;;;;;;8.02;81.36;97322.78;4995276;28;20448;-80
2023/01/03 02:44:50;;;;;;;0.80;0.50;;;;;;;8.10;81.24;97329.53;4994613;28;20093;-79
2023/01/03 02:47:21;;;;;;;1.98;0.73;;;;;;;8.13;81.31;97331.69;4989131;28;20061;-79
2023/01/03 02:49:51;;;;;;;1.00;0.70;;;;;;;8.10;80.92;97322.22;4994323;28;20062;-79
2023/01/03 02:52:21;;;;;;;2.28;0.70;;;;;;;8.19;80.65;97333.28;4994561;28;20454;-79
2023/01/03 02:54:55;;;;;;;8.40;2.15;;;;;;;8.17;80.47;97326.50;4994873;28;20046;-79
2023/01/03 02:57:26;;;;;;;1.17;0.70;;;;;;;8.27;79.83;97337.31;4995404;28;20061;-79
2023/01/03 02:59:58;;;;;;;1.90;0.60;;;;;;;8.19;80.35;97340.59;4988006;28;20042;-79
2023/01/03 03:02:31;;;;;;;1.88;0.75;;;;;;;8.07;81.66;97333.59;4995091;28;20064;-80
2023/01/03 03:05:00;;;;;;;1.52;0.60;;;;;;;8.15;81.36;97337.66;4995511;28;20052;-78
2023/01/03 03:07:31;;;;;;;0.50;0.50;;;;;;;8.02;81.49;97333.63;5003767;28;20054;-79
2023/01/03 03:15:35;;;;;;;1.17;0.60;;;;;;;8.02;80.62;97336.34;5017591;28;20053;-79
2023/01/03 03:18:08;;;;;;;2.05;0.80;;;;;;;7.93;80.90;97332.56;5018506;28;20069;-77
2023/01/03 03:26:12;;;;;;;1.90;0.70;;;;;;;7.67;83.20;97317.47;5000292;28;20053;-78
2023/01/03 03:28:43;;;;;;;0.50;0.50;;;;;;;7.69;82.66;97326.16;5001324;28;20122;-79
2023/01/03 03:31:14;;;;;;;1.55;0.65;;;;;;;7.57;83.09;97319.13;5000857;28;20052;-79
2023/01/03 03:33:49;;;;;;;0.98;0.52;;;;;;;7.46;84.29;97317.50;5001038;28;20039;-78
2023/01/03 03:36:19;;;;;;;1.27;0.60;;;;;;;7.42;84.30;97327.31;5000225;28;20034;-79
2023/01/03 03:38:46;;;;;;;0.80;0.80;;;;;;;7.39;84.76;97318.91;5001279;28;20050;-79
2023/01/03 03:47:11;;;;;;;2.75;0.90;;;;;;;7.32;85.44;97333.53;4987509;28;20078;-79
2023/01/03 03:49:44;;;;;;;1.40;0.80;;;;;;;7.29;85.22;97327.84;4994847;28;20034;-79
2023/01/03 03:52:14;;;;;;;1.65;0.80;;;;;;;7.21;85.90;97331.94;4997728;28;20046;-79
2023/01/03 03:54:47;;;;;;;0.88;0.68;;;;;;;7.20;86.37;97324.88;5000773;28;20056;-79
2023/01/03 03:57:18;;;;;;;1.23;0.70;;;;;;;7.18;86.18;97328.94;5001368;28;20039;-79
2023/01/03 03:59:50;;;;;;;1.10;0.80;;;;;;;7.17;86.21;97324.63;5000900;28;20405;-80
2023/01/03 04:02:19;;;;;;;1.60;0.73;;;;;;;7.19;86.52;97322.44;4999782;28;20073;-78
2023/01/03 04:04:50;;;;;;;0.88;0.68;;;;;;;7.36;85.68;97325.69;5000985;28;20034;-79
2023/01/03 04:07:17;;;;;;;2.33;1.30;;;;;;;7.39;85.48;97322.41;5003354;28;20047;-79
2023/01/03 04:09:44;;;;;;;3.40;0.80;;;;;;;7.39;85.48;97310.78;5002947;28;20042;-80
2023/01/03 04:12:14;;;;;;;2.17;0.80;;;;;;;7.40;84.83;97315.91;5002936;28;20054;-79
2023/01/03 04:14:40;;;;;;;1.30;0.60;;;;;;;7.50;84.53;97312.38;5001511;28;20053;-79
2023/01/03 04:17:07;;;;;;;1.20;0.80;;;;;;;7.50;84.90;97323.22;5001970;28;20049;-79
2023/01/03 04:19:33;;;;;;;1.33;0.80;;;;;;;7.44;85.09;97325.13;4997691;28;20104;-78
2023/01/03 04:22:01;;;;;;;1.63;0.90;;;;;;;7.35;85.65;97324.03;4997146;28;20042;-79
2023/01/03 04:24:28;;;;;;;1.05;0.88;;;;;;;7.29;86.18;97314.31;4996563;28;20057;-77
2023/01/03 04:26:54;;;;;;;1.50;0.90;;;;;;;7.38;85.83;97320.78;4999429;28;20052;-79
2023/01/03 04:29:21;;;;;;;0.80;0.70;;;;;;;7.43;85.39;97331.63;4999185;28;20048;-79
2023/01/03 04:31:47;;;;;;;1.38;0.80;;;;;;;7.48;84.84;97328.91;5008992;28;20939;-80
2023/01/03 04:34:14;;;;;;;1.67;0.80;;;;;;;7.38;84.95;97331.63;4998541;28;20043;-79
2023/01/03 04:36:40;;;;;;;1.15;1.00;;;;;;;7.34;85.25;97325.13;4995844;28;20050;-80
2023/01/03 04:39:08;;;;;;;1.42;1.10;;;;;;;7.22;85.70;97332.75;4997310;28;20046;-80
2023/01/03 04:41:35;;;;;;;1.02;0.80;;;;;;;7.12;86.50;97338.16;4997720;28;20050;-80
2023/01/03 04:44:01;;;;;;;1.00;0.70;;;;;;;7.04;87.20;97345.72;4998587;28;20053;-80
2023/01/03 04:46:29;;;;;;;2.17;0.82;;;;;;;7.11;86.77;97342.78;5003239;28;20045;-80
2023/01/03 04:48:55;;;;;;;1.25;0.80;;;;;;;7.26;86.31;97339.25;5018395;28;20046;-79
2023/01/03 04:51:22;;;;;;;4.00;1.45;;;;;;;7.37;85.58;97340.84;4997671;28;20058;-80
2023/01/03 04:53:48;;;;;;;5.55;1.50;;;;;;;7.13;86.36;97343.31;4997837;28;20073;-81
2023/01/03 04:56:17;;;;;;;2.10;1.00;;;;;;;7.11;86.70;97341.97;4996581;28;20046;-81
2023/01/03 04:58:43;;;;;;;3.90;1.33;;;;;;;7.25;86.31;97343.00;4996696;28;20065;-80
2023/01/03 05:01:10;;;;;;;4.15;1.17;;;;;;;7.37;85.61;97348.19;4996347;28;20057;-78
2023/01/03 05:03:40;;;;;;;4.25;1.60;;;;;;;7.31;86.56;97352.78;4998671;28;20046;-81
2023/01/03 05:06:08;;;;;;;1.75;1.10;;;;;;;7.26;86.97;97350.09;4998428;28;20042;-79
2023/01/03 05:08:36;;;;;;;0.82;0.70;;;;;;;7.36;86.86;97355.50;5000306;28;20253;-80
2023/01/03 05:11:03;;;;;;;4.47;0.93;;;;;;;7.48;86.38;97353.31;5000381;28;20042;-79
2023/01/03 05:13:32;;;;;;;1.52;0.73;;;;;;;7.55;85.84;97351.09;5000306;28;20065;-79
2023/01/03 05:16:04;;;;;;;2.85;1.40;;;;;;;7.62;85.76;97360.84;5000542;28;20049;-78
2023/01/03 05:18:30;;;;;;;1.15;0.93;;;;;;;7.65;85.44;97366.53;4999465;28;20069;-80
2023/01/03 05:26:27;;;;;;;4.93;1.40;;;;;;;7.77;84.58;97380.59;5002150;28;20137;-80
2023/01/03 05:28:55;;;;;;;4.75;1.35;;;;;;;7.78;84.50;97374.13;5005466;28;20038;-80
2023/01/03 05:31:21;;;;;;;15.38;2.28;;;;;;;7.75;83.59;97381.97;4994918;28;21692;-77
2023/01/03 05:33:48;;;;;;;2.83;1.10;;;;;;;7.58;83.15;97385.81;4997566;28;20054;-81
2023/01/03 05:36:15;;;;;;;6.00;2.00;;;;;;;7.62;83.26;97379.81;4998776;28;20050;-79
2023/01/03 05:38:41;;;;;;;3.17;1.77;;;;;;;7.68;83.21;97384.19;4997018;28;20045;-78
2023/01/03 05:41:08;;;;;;;6.07;1.90;;;;;;;7.67;82.67;97386.03;4997686;28;20069;-80
2023/01/03 05:43:34;;;;;;;7.32;2.13;;;;;;;7.74;82.70;97393.91;4996262;28;20100;-80
2023/01/03 05:46:02;;;;;;;1.92;1.00;;;;;;;7.78;82.59;97389.59;4997701;28;20441;-81
2023/01/03 05:48:29;;;;;;;1.33;0.85;;;;;;;7.77;82.62;97390.66;5004660;28;20049;-80
2023/01/03 05:50:57;;;;;;;4.30;1.48;;;;;;;7.75;83.11;97384.69;5018617;28;20052;-79
2023/01/03 05:53:25;;;;;;;5.00;1.70;;;;;;;7.80;82.52;97387.41;5018424;28;20044;-81
2023/01/03 05:55:51;;;;;;;17.48;1.90;;;;;;;7.82;82.28;97393.34;5017573;28;20046;-78
2023/01/03 05:58:18;;;;;;;2.42;1.02;;;;;;;7.79;82.24;97385.78;5016151;28;20042;-78
2023/01/03 06:00:44;;;;;;;2.42;1.20;;;;;;;7.69;82.53;97402.06;5015072;28;20524;-79
2023/01/03 06:03:12;;;;;;;1.42;1.00;;;;;;;7.54;83.28;97401.00;5015342;28;20632;-79
2023/01/03 06:05:38;;;;;;;1.58;1.10;;;;;;;7.62;83.59;97402.31;5017220;28;20046;-80
2023/01/03 06:08:05;;;;;;;2.80;1.60;;;;;;;7.68;83.45;97403.16;5008463;28;20053;-80
2023/01/03 06:10:32;;;;;;;1.55;1.10;;;;;;;7.58;83.75;97401.25;4998900;28;20430;-81
2023/01/03 06:12:58;;;;;;;15.25;2.13;;;;;;;7.41;85.34;97403.44;4995913;28;20049;-80
2023/01/03 06:15:25;;;;;;;7.63;1.83;;;;;;;7.31;85.85;97401.56;4996918;28;20389;-79
2023/01/03 06:17:53;;;;;;;11.95;2.60;;;;;;;7.29;86.16;97393.69;4989243;28;20130;-80
2023/01/03 06:20:21;;;;;;;6.15;1.85;;;;;;;7.41;85.31;97390.69;4997779;28;20038;-79
2023/01/03 06:22:48;;;;;;;5.57;1.92;;;;;;;7.42;84.87;97392.34;4998016;28;20051;-79
2023/01/03 06:25:14;;;;;;;3.25;1.70;;;;;;;7.48;84.72;97391.25;4988693;28;20042;-79
2023/01/03 06:27:41;;;;;;;7.40;2.30;;;;;;;7.56;84.15;97398.00;4993871;28;20057;-77
2023/01/03 06:30:09;;;;;;;7.35;2.13;;;;;;;7.62;83.95;97396.91;4992233;28;20054;-79
2023/01/03 06:32:35;;;;;;;17.13;2.95;;;;;;;7.65;84.01;97395.56;4994651;28;20065;-79
2023/01/03 06:35:02;;;;;;;15.07;1.83;;;;;;;7.70;84.29;97398.25;4995206;28;20048;-78
2023/01/03 06:37:30;;;;;;;17.25;2.20;;;;;;;7.73;83.91;97397.72;4996158;28;20493;-79
2023/01/03 06:39:56;;;;;;;14.23;1.80;;;;;;;7.74;84.23;97399.34;4995086;28;20038;-79
2023/01/03 06:53:25;;;;;;;27.25;3.42;;;;;;;7.19;85.83;97403.69;5014327;28;20049;-80
2023/01/03 06:55:51;;;;;;;20.85;2.75;;;;;;;7.12;85.76;97408.59;5021016;28;20441;-79
2023/01/03 06:58:18;;;;;;;20.83;2.63;;;;;;;7.15;85.92;97413.44;4995290;28;20062;-80
2023/01/03 07:00:46;;;;;;;42.22;3.53;;;;;;;7.16;86.17;97415.09;4994288;28;20116;-80
2023/01/03 07:03:12;;;;;;;19.67;2.58;;;;;;;7.11;86.23;97417.81;4993969;28;20054;-80
2023/01/03 07:05:39;;;;;;;42.95;3.72;;;;;;;7.21;85.67;97423.22;4993548;28;20059;-80
2023/01/03 07:08:05;;;;;;;3.95;1.90;;;;;;;7.18;86.05;97419.16;4993685;28;20038;-79
2023/01/03 07:10:33;;;;;;;2.40;1.63;;;;;;;7.29;85.74;97425.38;4995400;28;20050;-80
2023/01/03 07:15:44;;;;;;;37.42;3.22;;;;;;;7.32;85.21;97443.81;5002265;28;20520;-80
2023/01/03 07:18:11;;;;;;;24.15;3.00;;;;;;;7.33;85.23;97440.03;5017374;28;20072;-79
2023/01/03 07:20:41;;;;;;;33.42;3.35;;;;;;;7.30;85.65;97437.84;5015948;28;20041;-80
2023/01/03 07:23:07;;;;;;;16.13;2.40;;;;;;;7.29;85.17;97437.03;5015018;28;20125;-80
2023/01/03 07:25:39;;;;;;;37.97;3.47;;;;;;;7.38;84.74;97439.22;5016753;28;20076;-80
2023/01/03 07:28:06;;;;;;;28.90;3.08;;;;;;;7.42;84.96;97441.13;5018864;28;20041;-79
2023/01/03 07:30:36;;;;;;;27.77;3.20;;;;;;;7.42;85.25;97451.97;5020372;28;20046;-80
2023/01/03 07:33:03;;;;;;;18.33;2.70;;;;;;;7.31;85.00;97461.16;5017373;28;20061;-78
2023/01/03 07:35:31;;;;;;;28.35;3.10;;;;;;;7.26;85.61;97461.16;5018321;28;20041;-78
2023/01/03 07:37:59;;;;;;;25.33;3.08;;;;;;;7.24;85.76;97455.19;5016649;28;20041;-79
2023/01/03 07:40:25;;;;;;;7.18;2.00;;;;;;;7.21;86.28;97461.97;5013930;28;20042;-79
2023/01/03 07:45:40;;;;;;;26.75;3.03;;;;;;;6.95;87.29;97474.66;5014104;28;20065;-82
2023/01/03 07:48:07;;;;;;;19.83;3.17;;;;;;;6.98;87.66;97474.09;4994259;28;20050;-80
2023/01/03 07:50:34;;;;;;;39.03;4.10;;;;;;;6.94;87.81;97475.72;4996181;28;20050;-81
2023/01/03 07:53:00;;;;;;;16.17;2.55;;;;;;;6.92;88.27;97485.19;5000412;28;20605;-81
2023/01/03 07:55:27;;;;;;;29.00;3.65;;;;;;;6.85;88.94;97481.94;5001149;28;20042;-82
2023/01/03 07:57:55;;;;;;;15.57;3.13;;;;;;;6.83;89.05;97479.47;4993909;28;20046;-81
2023/01/03 08:00:22;;;;;;;19.35;3.20;;;;;;;6.85;89.53;97469.19;5001564;28;20137;-81
2023/01/03 08:02:49;;;;;;;31.52;3.45;;;;;;;6.86;89.96;97464.59;5000991;28;20049;-82
2023/01/03 08:05:15;;;;;;;26.80;3.58;;;;;;;6.88;90.48;97471.34;5001315;28;20405;-81
2023/01/03 08:07:42;;;;;;;25.25;3.72;;;;;;;6.92;91.38;97475.16;4994314;28;20057;-81
2023/01/03 08:15:38;;;;;;;37.85;4.55;;;;;;;6.92;92.38;97480.59;5010619;28;20148;-81
2023/01/03 08:18:05;;;;;;;33.03;4.28;;;;;;;6.88;92.55;97482.19;5024784;28;20041;-81
2023/01/03 08:20:31;;;;;;;10.27;3.80;;;;;;;6.85;92.80;97484.63;5025389;28;20386;-81
2023/01/03 08:22:59;;;;;;;21.27;4.00;;;;;;;6.89;93.13;97481.13;5022152;28;20048;-81
2023/01/03 08:25:26;;;;;;;13.73;4.22;;;;;;;6.92;92.95;97486.00;5020112;28;20045;-80
2023/01/03 08:27:52;;;;;;;7.95;3.60;;;;;;;6.92;93.10;97496.81;5006814;28;20048;-81
2023/01/03 08:30:19;;;;;;;17.52;4.03;;;;;;;6.93;93.12;97493.03;5001999;28;20042;-81
2023/01/03 08:32:47;;;;;;;41.83;4.50;;;;;;;6.88;93.06;97495.72;5002179;28;20042;-81
2023/01/03 08:35:14;;;;;;;27.58;3.85;;;;;;;6.86;92.94;97507.91;5001406;28;20042;-81
2023/01/03 08:37:41;;;;;;;34.28;4.22;;;;;;;6.88;92.81;97506.56;5001774;28;20050;-81
2023/01/03 08:40:14;;;;;;;44.22;5.18;;;;;;;6.89;92.83;97505.50;5000796;28;20050;-80
2023/01/03 08:42:40;;;;;;;4.75;3.05;;;;;;;6.83;92.74;97503.03;4998450;28;20046;-80
2023/01/03 08:45:13;;;;;;;3.83;2.70;;;;;;;6.74;92.83;97510.84;4998938;28;20053;-80
2023/01/03 08:47:41;;;;;;;;;;;;;;;6.79;92.85;97508.16;5000813;28;20054;-81
2023/01/03 08:50:11;;;;;;;5.60;3.60;;;;;;;6.62;93.93;97523.78;4995113;28;19921;-79
2023/01/03 08:52:37;;;;;;;10.68;4.07;;;;;;;6.44;95.00;97522.34;5003711;28;20056;-79
2023/01/03 08:55:07;;;;;;;18.63;4.30;;;;;;;6.39;95.80;97531.25;5003022;28;20038;-80
2023/01/03 08:57:33;;;;;;;32.33;4.47;;;;;;;6.44;95.94;97528.56;5002562;28;20042;-79
2023/01/03 09:00:00;;;;;;;4.53;3.03;;;;;;;6.50;95.99;97527.50;5003032;28;20056;-79
2023/01/03 09:02:26;;;;;;;3.95;2.85;;;;;;;6.60;95.25;97529.47;5003084;28;20049;-79
2023/01/03 09:04:53;;;;;;;4.50;3.05;;;;;;;6.60;95.30;97534.88;4994687;28;20054;-79
2023/01/03 09:07:20;;;;;;;4.57;2.92;;;;;;;6.54;95.58;97533.22;4999605;28;20065;-80
2023/01/03 09:09:47;;;;;;;4.85;2.92;;;;;;;6.62;95.07;97531.91;5000386;28;20038;-78
2023/01/03 09:12:13;;;;;;;8.98;3.63;;;;;;;6.56;95.18;97531.06;4999916;28;20043;-80
2023/01/03 09:14:40;;;;;;;4.72;3.13;;;;;;;6.60;95.15;97534.06;4997145;28;20708;-78
2023/01/03 09:17:06;;;;;;;19.88;3.90;;;;;;;6.68;95.04;97536.25;4995685;28;20042;-80
2023/01/03 09:19:33;;;;;;;32.50;5.05;;;;;;;6.74;95.00;97538.75;4994346;28;20049;-79
2023/01/03 09:22:00;;;;;;;24.67;4.22;;;;;;;6.82;94.33;97545.53;4987919;28;20050;-78
2023/01/03 09:24:28;;;;;;;22.48;3.80;;;;;;;6.88;94.31;97539.03;4988559;28;20047;-78
2023/01/03 09:26:56;;;;;;;26.02;3.90;;;;;;;6.79;93.84;97543.38;4979453;28;20074;-79
2023/01/03 09:29:23;;;;;;;24.95;4.10;;;;;;;6.79;94.36;97556.91;4993996;28;20043;-78
2023/01/03 09:31:50;;;;;;;21.60;3.83;;;;;;;6.74;94.66;97559.59;4994524;28;20445;-79
2023/01/03 09:34:16;;;;;;;37.40;4.90;;;;;;;6.85;94.65;97555.03;4994654;28;20126;-79
2023/01/03 09:36:43;;;;;;;27.20;4.00;;;;;;;6.78;94.78;97556.06;5002317;28;20050;-79
2023/01/03 09:39:10;;;;;;;11.73;4.82;;;;;;;6.91;94.47;97543.94;5000885;28;20050;-79
2023/01/03 09:41:39;;;;;;;41.67;4.85;;;;;;;6.88;94.16;97549.88;5001301;28;20050;-79
2023/01/03 09:44:08;;;;;;;17.92;3.63;;;;;;;6.91;95.07;97554.78;5000117;28;20135;-79
2023/01/03 09:46:35;;;;;;;20.55;3.95;;;;;;;6.93;94.92;97552.59;4999767;28;20442;-79
2023/01/03 09:49:03;;;;;;;30.40;4.32;;;;;;;6.98;95.17;97554.53;5004313;28;20054;-79
2023/01/03 10:06:12;;;;;;;43.05;4.95;;;;;;;6.94;96.30;97554.25;5003939;28;20053;-79
2023/01/03 10:08:53;;;;;;;30.75;4.72;;;;;;;6.88;96.18;97544.47;4998213;28;20422;-80
2023/01/03 10:11:26;;;;;;;20.85;4.80;;;;;;;6.86;96.01;97546.63;5007045;28;20049;-79
2023/01/03 10:14:10;;;;;;;25.77;4.63;;;;;;;6.84;95.85;97542.53;5006660;28;20046;-79
2023/01/03 10:16:49;;;;;;;23.92;4.53;;;;;;;6.86;95.90;97541.22;5012517;28;20042;-79
2023/01/03 10:19:42;;;;;;;26.42;4.45;;;;;;;6.90;95.75;97539.63;5019131;28;20038;-80
2023/01/03 10:22:14;;;;;;;17.50;4.07;;;;;;;6.95;95.64;97542.34;5020194;28;20041;-80
2023/01/03 10:24:44;;;;;;;36.85;5.53;;;;;;;6.94;95.52;97540.72;5019043;28;20042;-79
2023/01/03 10:27:15;;;;;;;12.45;3.83;;;;;;;6.96;95.64;97533.13;5016212;28;20065;-80
2023/01/03 10:29:43;;;;;;;29.60;5.63;;;;;;;6.97;95.73;97537.47;5015818;28;20050;-79
2023/01/03 10:32:21;;;;;;;15.38;4.72;;;;;;;6.98;95.96;97530.97;5013641;28;20046;-81
2023/01/03 10:35:02;;;;;;;19.95;6.05;;;;;;;6.89;96.29;97532.56;4994007;28;20055;-80
2023/01/03 10:37:29;;;;;;;9.88;4.88;;;;;;;6.97;96.26;97526.63;5000754;28;20404;-80
2023/01/03 10:40:02;;;;;;;9.73;4.65;;;;;;;7.01;96.20;97529.63;5017120;28;20038;-80
2023/01/03 10:42:32;;;;;;;10.80;4.90;;;;;;;7.02;96.18;97533.97;4997917;28;20045;-79
2023/01/03 10:45:02;;;;;;;11.70;5.03;;;;;;;6.99;96.62;97535.28;5012981;28;20157;-80
2023/01/03 10:47:29;;;;;;;8.90;4.97;;;;;;;6.80;97.33;97526.03;4998393;28;20054;-79
2023/01/03 10:49:59;;;;;;;16.80;6.45;;;;;;;6.79;97.57;97529.84;4994734;28;20061;-80
2023/01/03 10:52:32;;;;;;;8.90;5.03;;;;;;;6.77;98.02;97527.38;4993857;28;20078;-81
2023/01/03 10:55:03;;;;;;;7.93;4.90;;;;;;;6.70;98.26;97526.00;4989171;28;20045;-81
2023/01/03 10:57:38;;;;;;;14.80;5.50;;;;;;;6.69;98.26;97533.31;4994564;28;20425;-80
2023/01/03 11:00:26;;;;;;;6.03;4.47;;;;;;;6.60;97.80;97524.06;4993809;28;20081;-80
2023/01/03 11:02:54;;;;;;;15.20;5.72;;;;;;;6.58;98.53;97525.38;4996080;28;20502;-80
2023/01/03 11:05:23;;;;;;;29.45;5.72;;;;;;;6.51;99.35;97529.13;5008314;28;20052;-80
2023/01/03 11:07:54;;;;;;;11.00;5.22;;;;;;;6.57;99.99;97521.03;4994493;28;20061;-80
2023/01/03 11:10:22;;;;;;;20.27;7.03;;;;;;;6.67;99.95;97516.50;4994614;28;20050;-79
2023/01/03 11:12:48;;;;;;;9.50;5.05;;;;;;;6.60;100.00;97520.53;4995367;28;20383;-81
2023/01/03 11:15:17;;;;;;;9.00;4.78;;;;;;;6.53;100.00;97516.19;4995494;28;20042;-81
2023/01/03 11:17:56;;;;;;;14.02;6.95;;;;;;;6.53;100.00;97520.78;4995828;28;20038;-81
2023/01/03 11:20:35;;;;;;;12.90;6.03;;;;;;;6.49;100.00;97525.91;4993709;28;20062;-80
2023/01/03 11:23:07;;;;;;;15.30;6.43;;;;;;;6.61;100.00;97522.16;4994346;28;20050;-81
2023/01/03 11:25:44;;;;;;;32.55;6.70;;;;;;;6.57;100.00;97515.63;5015118;28;20508;-81
2023/01/03 11:28:39;;;;;;;26.55;5.88;;;;;;;6.71;100.00;97514.09;5014841;28;20049;-81
2023/01/03 11:31:11;;;;;;;25.75;6.47;;;;;;;6.77;99.89;97513.03;5001638;28;20050;-81
2023/01/03 11:33:59;;;;;;;33.23;6.73;;;;;;;6.75;100.00;97517.91;5006430;28;20050;-81
2023/01/03 11:36:39;;;;;;;25.33;6.57;;;;;;;6.76;100.00;97514.91;4999012;28;20061;-81
2023/01/03 11:39:19;;;;;;;9.73;5.15;;;;;;;6.83;100.00;97509.25;4992344;28;20042;-81
2023/01/03 11:42:02;;;;;;;16.02;6.18;;;;;;;6.78;99.90;97511.94;5004891;28;20042;-81
2023/01/03 11:44:58;;;;;;;10.07;5.45;;;;;;;6.75;100.00;97507.06;5013139;28;20073;-81
2023/01/03 11:47:36;;;;;;;18.42;6.15;;;;;;;6.75;100.00;97501.66;4998449;28;20046;-80
2023/01/03 11:50:18;;;;;;;14.02;5.75;;;;;;;6.82;100.00;97494.09;4998709;28;20042;-80
2023/01/03 11:52:50;;;;;;;18.00;6.35;;;;;;;6.90;100.00;97499.00;4998189;28;20042;-81
2023/01/03 11:55:35;;;;;;;5.88;4.20;;;;;;;6.85;99.83;97495.47;5002231;28;20417;-81
2023/01/03 11:58:19;;;;;;;14.93;5.22;;;;;;;6.66;98.88;97498.63;4999656;28;20045;-80
2023/01/03 12:00:57;;;;;;;8.88;4.93;;;;;;;6.76;99.31;97497.84;5015276;28;20042;-81
2023/01/03 12:03:34;;;;;;;19.38;5.13;;;;;;;6.71;98.64;97497.84;5016096;28;20413;-80
2023/01/03 12:06:13;;;;;;;14.40;5.35;;;;;;;6.68;98.28;97496.50;5017629;28;20041;-81
2023/01/03 12:09:02;;;;;;;8.63;4.85;;;;;;;6.56;99.45;97495.88;5016945;28;20050;-81
2023/01/03 12:11:45;;;;;;;7.93;4.88;;;;;;;6.50;100.00;97483.41;5013567;28;20045;-82
2023/01/03 12:14:19;;;;;;;8.35;5.22;;;;;;;6.65;100.00;97488.88;5016259;28;20041;-81
2023/01/03 12:16:52;;;;;;;5.57;4.05;;;;;;;6.72;100.00;97485.94;5019118;28;20053;-80
2023/01/03 12:19:30;;;;;;;12.55;5.28;;;;;;;6.80;99.70;97490.84;5020555;28;20038;-80
2023/01/03 12:22:04;;;;;;;11.48;4.72;;;;;;;6.56;99.03;97486.94;5000952;28;20453;-81
2023/01/03 12:24:36;;;;;;;6.00;4.30;;;;;;;6.59;98.87;97491.84;5013740;28;20093;-78
2023/01/03 12:27:05;;;;;;;6.90;3.78;;;;;;;6.57;99.17;97493.97;5015282;28;20057;-79
2023/01/03 12:29:41;;;;;;;7.97;4.40;;;;;;;6.66;99.28;97487.81;5023073;28;20456;-80
2023/01/03 12:32:15;;;;;;;10.98;4.65;;;;;;;6.69;99.53;97494.59;5014956;28;20407;-81
2023/01/03 12:34:50;;;;;;;18.50;5.22;;;;;;;6.74;99.96;97495.44;5023289;28;20069;-80
2023/01/03 12:37:22;;;;;;;26.05;5.65;;;;;;;6.75;99.68;97491.63;5015127;28;20050;-81
2023/01/03 12:39:55;;;;;;;16.83;5.10;;;;;;;6.68;99.67;97495.66;5022970;28;20112;-81
2023/01/03 12:42:36;;;;;;;22.83;5.83;;;;;;;6.72;100.00;97494.06;5008434;28;20059;-80
2023/01/03 12:45:20;;;;;;;18.52;4.95;;;;;;;6.81;100.00;97489.75;4990636;28;20068;-80
2023/01/03 12:47:51;;;;;;;20.27;4.50;;;;;;;6.59;98.27;97491.84;4996690;28;20038;-80
2023/01/03 12:50:25;;;;;;;14.52;4.25;;;;;;;6.66;98.63;97487.00;4992376;28;20046;-79
2023/01/03 12:52:58;;;;;;;26.00;5.28;;;;;;;6.73;98.16;97488.41;4997098;28;20061;-81
2023/01/03 12:55:40;;;;;;;19.10;4.30;;;;;;;6.73;99.02;97484.84;4995507;28;20051;-80
2023/01/03 12:58:30;;;;;;;4.70;3.10;;;;;;;6.81;98.03;97473.50;4997228;28;20042;-80
2023/01/03 13:01:00;;;;;;;9.13;4.05;;;;;;;6.82;97.07;97472.44;4991536;28;20073;-79